createdAt,value
2019-04-05T00:02:10.990Z,47.20
2019-04-05T00:04:37.176Z,47.43
2019-04-05T00:07:03.480Z,45.47
2019-04-05T00:09:29.655Z,46.27
2019-04-05T00:11:55.856Z,42.83
2019-04-05T00:14:21.925Z,45.67
2019-04-05T00:16:48.117Z,43.20
2019-04-05T00:19:14.237Z,43.77
2019-04-05T00:21:40.314Z,43.93
2019-04-05T00:24:06.519Z,44.60
2019-04-05T00:26:32.842Z,44.73
2019-04-05T00:28:59.148Z,44.33
2019-04-05T00:31:25.363Z,44.07
2019-04-05T00:33:51.544Z,45.80
2019-04-05T00:36:17.670Z,43.87
2019-04-05T00:38:43.850Z,46.37
2019-04-05T00:41:10.039Z,45.10
2019-04-05T00:43:36.111Z,46.10
2019-04-05T00:46:02.387Z,45.63
2019-04-05T00:48:28.586Z,48.97
2019-04-05T00:50:54.867Z,47.00
2019-04-05T00:53:21.099Z,45.97
2019-04-05T00:55:47.663Z,47.60
2019-04-05T00:58:13.973Z,47.90
2019-04-05T01:00:40.199Z,46.03
2019-04-05T01:03:06.501Z,45.30
2019-04-05T01:05:32.808Z,48.10
2019-04-05T01:07:59.099Z,46.00
2019-04-05T01:10:25.381Z,45.77
2019-04-05T01:12:51.623Z,45.20
2019-04-05T01:15:17.909Z,44.43
2019-04-05T01:17:44.127Z,44.70
2019-04-05T01:20:10.818Z,46.23
2019-04-05T01:22:39.531Z,42.77
2019-04-05T01:25:05.947Z,45.70
2019-04-05T01:27:33.824Z,44.27
2019-04-05T01:30:00.097Z,45.50
2019-04-05T01:32:26.314Z,47.50
2019-04-05T01:34:52.633Z,44.80
2019-04-05T01:37:20.313Z,44.03
2019-04-05T01:39:46.496Z,43.10
2019-04-05T01:42:12.594Z,45.60
2019-04-05T01:44:39.200Z,47.80
2019-04-05T01:47:05.391Z,44.60
2019-04-05T01:49:31.522Z,46.60
2019-04-05T01:51:57.832Z,47.67
2019-04-05T01:54:24.030Z,49.40
2019-04-05T01:56:50.128Z,51.97
2019-04-05T01:59:17.342Z,50.37
2019-04-05T02:01:43.617Z,48.60
2019-04-05T02:04:09.802Z,49.43
2019-04-05T02:06:36.090Z,48.90
2019-04-05T02:09:07.022Z,50.60
2019-04-05T02:11:33.241Z,47.67
2019-04-05T02:13:59.521Z,47.50
2019-04-05T02:16:25.890Z,48.80
2019-04-05T02:18:52.117Z,51.33
2019-04-05T02:21:18.300Z,53.50
2019-04-05T02:23:44.596Z,51.67
2019-04-05T02:26:10.861Z,50.57
2019-04-05T02:28:37.139Z,49.67
2019-04-05T02:31:03.522Z,52.43
2019-04-05T02:33:29.743Z,50.30
2019-04-05T02:35:56.070Z,51.27
2019-04-05T02:38:22.370Z,48.90
2019-04-05T02:40:50.466Z,51.23
2019-04-05T02:43:17.761Z,51.63
2019-04-05T02:45:45.771Z,49.27
2019-04-05T02:48:12.482Z,48.57
2019-04-05T02:50:42.383Z,48.50
2019-04-05T02:53:10.680Z,50.00
2019-04-05T02:55:39.406Z,53.47
2019-04-05T02:58:07.108Z,53.07
2019-04-05T03:00:33.793Z,58.60
2019-04-05T03:03:02.076Z,57.13
2019-04-05T03:05:28.476Z,54.43
2019-04-05T03:07:55.621Z,54.63
2019-04-05T03:10:45.679Z,51.97
2019-04-05T03:13:11.943Z,52.33
2019-04-05T03:15:38.332Z,52.43
2019-04-05T03:18:04.835Z,50.50
2019-04-05T03:20:31.225Z,51.73
2019-04-05T03:22:57.524Z,51.00
2019-04-05T03:25:24.086Z,48.77
2019-04-05T03:27:50.374Z,47.87
2019-04-05T03:30:16.756Z,47.60
2019-04-05T03:32:43.681Z,47.50
2019-04-05T03:35:10.379Z,49.50
2019-04-05T03:37:36.700Z,50.00
2019-04-05T03:40:05.195Z,47.50
2019-04-05T03:42:32.619Z,46.00
2019-04-05T03:44:59.106Z,47.93
2019-04-05T03:47:25.391Z,48.80
2019-04-05T03:49:51.721Z,47.93
2019-04-05T03:52:19.090Z,48.37
2019-04-05T03:54:45.279Z,49.40
2019-04-05T03:57:11.825Z,49.43
2019-04-05T03:59:38.098Z,48.93
2019-04-05T04:02:04.428Z,49.93
2019-04-05T04:04:30.737Z,49.50
2019-04-05T04:06:57.236Z,49.30
2019-04-05T04:09:23.566Z,49.50
2019-04-05T04:11:49.845Z,52.20
2019-04-05T04:14:16.452Z,48.23
2019-04-05T04:16:42.722Z,49.73
2019-04-05T04:19:09.241Z,48.13
2019-04-05T04:21:42.151Z,46.70
2019-04-05T04:24:08.839Z,47.23
2019-04-05T04:26:35.234Z,50.57
2019-04-05T04:29:01.517Z,48.93
2019-04-05T04:31:29.072Z,48.10
2019-04-05T04:33:55.959Z,48.40
2019-04-05T04:36:22.565Z,48.40
2019-04-05T04:38:49.043Z,49.37
2019-04-05T04:41:15.337Z,52.43
2019-04-05T04:43:41.922Z,48.43
2019-04-05T04:46:08.241Z,47.67
2019-04-05T04:48:34.508Z,49.30
2019-04-05T04:51:00.806Z,51.10
2019-04-05T04:53:27.311Z,50.60
2019-04-05T04:55:53.997Z,51.83
2019-04-05T04:58:20.220Z,51.70
2019-04-05T05:00:46.619Z,52.60
2019-04-05T05:03:12.912Z,49.97
2019-04-05T05:05:39.622Z,50.27
2019-04-05T05:08:06.417Z,51.57
2019-04-05T05:10:33.513Z,50.30
2019-04-05T05:12:59.761Z,51.00
2019-04-05T05:15:27.405Z,52.57
2019-04-05T05:17:58.733Z,48.47
2019-04-05T05:20:22.969Z,47.43
2019-04-05T05:22:49.188Z,47.53
2019-04-05T05:25:16.574Z,54.47
2019-04-05T05:27:43.073Z,48.10
2019-04-05T05:30:10.335Z,47.83
2019-04-05T05:32:36.759Z,48.37
2019-04-05T05:35:04.950Z,48.50
2019-04-05T05:37:32.952Z,49.97
2019-04-05T05:39:59.450Z,52.03
2019-04-05T05:42:25.745Z,55.87
2019-04-05T05:44:51.855Z,57.67
2019-04-05T05:47:18.174Z,51.17
2019-04-05T05:49:44.298Z,50.30
2019-04-05T05:52:10.545Z,49.83
2019-04-05T05:54:36.770Z,47.80
2019-04-05T05:57:03.076Z,47.63
2019-04-05T05:59:30.280Z,48.53
2019-04-05T06:01:57.086Z,47.83
2019-04-05T06:04:23.171Z,50.63
2019-04-05T06:06:49.484Z,49.30
2019-04-05T06:09:15.600Z,49.33
2019-04-05T06:11:41.877Z,48.47
2019-04-05T06:14:08.171Z,48.47
2019-04-05T06:16:45.759Z,49.00
2019-04-05T06:19:03.783Z,48.87
2019-04-05T06:21:29.999Z,50.13
2019-04-05T06:23:56.328Z,47.83
2019-04-05T06:26:22.538Z,47.83
2019-04-05T06:28:48.830Z,50.10
2019-04-05T06:31:15.120Z,49.90
2019-04-05T06:33:41.312Z,45.13
2019-04-05T06:36:07.632Z,45.13
2019-04-05T06:38:33.811Z,43.80
2019-04-05T06:40:59.926Z,36.40
2019-04-05T06:43:26.108Z,35.13
2019-04-05T06:45:52.365Z,33.93
2019-04-05T06:48:19.788Z,32.23
2019-04-05T06:50:47.464Z,29.57
2019-04-05T06:53:14.065Z,29.37
2019-04-05T06:55:41.257Z,27.00
2019-04-05T06:58:10.183Z,26.30
2019-04-05T07:00:35.541Z,25.77
2019-04-05T07:03:01.983Z,24.40
2019-04-05T07:05:28.059Z,25.03
2019-04-05T07:07:54.238Z,25.00
2019-04-05T07:10:20.458Z,25.03
2019-04-05T07:12:46.704Z,25.30
2019-04-05T07:15:12.991Z,24.87
2019-04-05T07:17:40.322Z,24.60
2019-04-05T07:20:06.624Z,24.57
2019-04-05T07:22:38.973Z,24.97
2019-04-05T07:25:02.052Z,27.33
2019-04-05T07:27:28.142Z,27.07
2019-04-05T07:29:54.465Z,28.93
2019-04-05T07:32:20.671Z,30.03
2019-04-05T07:34:46.923Z,33.53
2019-04-05T07:37:13.036Z,30.53
2019-04-05T07:39:39.139Z,31.37
2019-04-05T07:42:05.440Z,32.07
2019-04-05T07:44:31.572Z,29.83
2019-04-05T07:46:57.700Z,30.83
2019-04-05T07:49:23.856Z,30.47
2019-04-05T07:51:49.967Z,32.17
2019-04-05T07:54:16.166Z,29.23
2019-04-05T07:56:42.306Z,31.50
2019-04-05T07:59:08.512Z,33.40
2019-04-05T08:01:34.914Z,31.70
2019-04-05T08:04:01.233Z,32.47
2019-04-05T08:06:29.134Z,33.37
2019-04-05T08:08:58.147Z,33.53
2019-04-05T08:11:25.133Z,29.83
2019-04-05T08:13:53.442Z,33.50
2019-04-05T08:16:19.542Z,32.10
2019-04-05T08:18:56.939Z,32.80
2019-04-05T08:21:13.769Z,32.47
2019-04-05T08:23:40.085Z,32.07
2019-04-05T08:26:06.497Z,27.10
2019-04-05T08:28:33.902Z,30.63
2019-04-05T08:31:00.224Z,28.10
2019-04-05T08:33:26.323Z,26.70
2019-04-05T08:35:52.597Z,26.23
2019-04-05T08:38:18.691Z,25.93
2019-04-05T08:40:44.983Z,25.90
2019-04-05T08:43:11.168Z,27.13
2019-04-05T08:45:37.356Z,25.20
2019-04-05T08:48:04.036Z,23.87
2019-04-05T08:50:30.254Z,23.37
2019-04-05T08:52:56.626Z,22.60
2019-04-05T08:55:23.825Z,21.30
2019-04-05T08:57:51.110Z,21.23
2019-04-05T09:00:17.743Z,20.33
2019-04-05T09:02:44.139Z,22.03
2019-04-05T09:05:10.395Z,21.73
2019-04-05T09:07:36.597Z,20.57
2019-04-05T09:10:04.799Z,21.80
2019-04-05T09:12:30.983Z,22.43
2019-04-05T09:14:57.689Z,22.03
2019-04-05T09:17:23.971Z,20.73
2019-04-05T09:19:50.050Z,20.93
2019-04-05T09:22:16.389Z,21.73
2019-04-05T09:24:42.513Z,21.03
2019-04-05T09:27:08.747Z,20.70
2019-04-05T09:29:34.865Z,21.00
2019-04-05T09:32:01.087Z,20.20
2019-04-05T09:34:27.302Z,22.03
2019-04-05T09:36:53.521Z,23.13
2019-04-05T09:39:19.737Z,23.17
2019-04-05T09:41:45.934Z,20.87
2019-04-05T09:44:12.245Z,21.17
2019-04-05T09:46:46.475Z,20.87
2019-04-05T09:49:06.644Z,21.70
2019-04-05T09:51:33.057Z,19.60
2019-04-05T09:53:59.261Z,20.97
2019-04-05T09:56:25.472Z,24.30
2019-04-05T09:58:51.692Z,21.90
2019-04-05T10:01:19.082Z,22.93
2019-04-05T10:03:45.281Z,23.20
2019-04-05T10:06:11.593Z,21.03
2019-04-05T10:08:37.791Z,21.70
2019-04-05T10:11:04.101Z,22.70
2019-04-05T10:13:30.292Z,22.13
2019-04-05T10:15:56.478Z,23.77
2019-04-05T10:18:22.696Z,21.40
2019-04-05T10:20:48.900Z,21.83
2019-04-05T10:23:15.277Z,22.83
2019-04-05T10:25:44.009Z,21.50
2019-04-05T10:28:09.762Z,20.40
2019-04-05T10:30:35.871Z,22.27
2019-04-05T10:33:02.324Z,21.03
2019-04-05T10:35:28.580Z,20.77
2019-04-05T10:37:54.759Z,21.80
2019-04-05T10:40:21.095Z,20.80
2019-04-05T10:42:47.397Z,22.77
2019-04-05T10:45:14.698Z,19.87
2019-04-05T10:47:41.016Z,22.00
2019-04-05T10:50:09.735Z,21.20
2019-04-05T10:52:37.155Z,21.03
2019-04-05T10:55:04.336Z,21.20
2019-04-05T10:57:30.755Z,20.60
2019-04-05T10:59:57.003Z,20.60
2019-04-05T11:02:23.102Z,21.77
2019-04-05T11:04:49.301Z,20.47
2019-04-05T11:07:15.588Z,21.07
2019-04-05T11:09:41.880Z,20.67
2019-04-05T11:12:08.721Z,21.87
2019-04-05T11:14:35.178Z,21.60
2019-04-05T11:17:04.483Z,19.80
2019-04-05T11:19:30.240Z,19.80
2019-04-05T11:21:57.594Z,19.80
2019-04-05T11:24:23.723Z,21.40
2019-04-05T11:26:49.848Z,20.67
2019-04-05T11:29:16.160Z,19.47
2019-04-05T11:31:42.375Z,19.77
2019-04-05T11:34:08.695Z,19.13
2019-04-05T11:36:35.288Z,21.17
2019-04-05T11:39:01.962Z,18.80
2019-04-05T11:41:31.598Z,20.93
2019-04-05T11:44:00.705Z,20.53
2019-04-05T11:46:29.198Z,18.83
2019-04-05T11:48:55.730Z,20.13
2019-04-05T11:51:22.201Z,19.93
2019-04-05T11:53:48.539Z,19.47
2019-04-05T11:56:17.482Z,19.83
2019-04-05T11:58:44.937Z,20.03
2019-04-05T12:01:12.927Z,20.07
2019-04-05T12:03:39.458Z,21.27
2019-04-05T12:06:05.641Z,19.47
2019-04-05T12:08:31.754Z,20.47
2019-04-05T12:10:57.943Z,19.83
2019-04-05T12:13:24.166Z,19.70
2019-04-05T12:15:50.386Z,20.40
2019-04-05T12:18:19.428Z,19.03
2019-04-05T12:20:52.365Z,19.07
2019-04-05T12:23:13.080Z,19.20
2019-04-05T12:25:39.328Z,20.63
2019-04-05T12:28:07.739Z,19.67
2019-04-05T12:30:33.697Z,20.13
2019-04-05T12:33:12.663Z,20.70
2019-04-05T12:35:28.189Z,20.93
2019-04-05T12:37:55.768Z,20.83
2019-04-05T12:40:23.559Z,19.83
2019-04-05T12:42:52.773Z,20.53
2019-04-05T12:45:17.984Z,20.40
2019-04-05T12:47:46.111Z,20.53
2019-04-05T12:50:14.618Z,21.43
2019-04-05T12:52:40.861Z,20.40
2019-04-05T12:55:07.358Z,21.10
2019-04-05T12:57:33.455Z,22.63
2019-04-05T12:59:59.854Z,21.53
2019-04-05T13:02:33.477Z,21.47
2019-04-05T13:04:54.087Z,21.53
2019-04-05T13:07:20.687Z,21.60
2019-04-05T13:09:48.570Z,22.17
2019-04-05T13:12:15.934Z,22.17
2019-04-05T13:14:42.152Z,22.43
2019-04-05T13:17:08.403Z,22.67
2019-04-05T13:19:34.629Z,22.40
2019-04-05T13:22:02.924Z,23.70
2019-04-05T13:24:29.319Z,23.47
2019-04-05T13:26:55.672Z,23.73
2019-04-05T13:29:21.811Z,22.97
2019-04-05T13:31:48.701Z,23.13
2019-04-05T13:34:18.212Z,22.60
2019-04-05T13:36:43.693Z,23.90
2019-04-05T13:39:10.003Z,23.43
2019-04-05T13:41:36.080Z,23.33
2019-04-05T13:44:02.619Z,23.67
2019-04-05T13:46:28.914Z,23.63
2019-04-05T13:48:55.126Z,23.10
2019-04-05T13:51:27.850Z,22.47
2019-04-05T13:53:50.555Z,23.57
2019-04-05T13:56:16.995Z,22.70
2019-04-05T13:58:46.129Z,22.77
2019-04-05T14:01:11.326Z,24.27
2019-04-05T14:03:37.653Z,22.70
2019-04-05T14:06:04.196Z,22.87
2019-04-05T14:08:30.667Z,21.43
2019-04-05T14:10:56.792Z,21.63
2019-04-05T14:13:22.992Z,22.00
2019-04-05T14:15:49.312Z,22.17
2019-04-05T14:18:15.624Z,22.23
2019-04-05T14:20:41.955Z,22.73
2019-04-05T14:23:08.275Z,23.20
2019-04-05T14:25:34.914Z,23.77
2019-04-05T14:28:04.270Z,23.00
2019-04-05T14:30:32.483Z,23.40
2019-04-05T14:32:57.734Z,22.00
2019-04-05T14:35:25.288Z,23.13
2019-04-05T14:37:52.364Z,21.23
2019-04-05T14:40:20.208Z,19.97
2019-04-05T14:42:46.550Z,21.20
2019-04-05T14:45:13.148Z,21.33
2019-04-05T14:47:41.505Z,20.67
2019-04-05T14:50:08.170Z,20.00
2019-04-05T14:52:34.586Z,19.03
2019-04-05T14:55:00.785Z,19.63
2019-04-05T14:57:26.883Z,20.07
2019-04-05T14:59:53.241Z,18.10
2019-04-05T15:02:20.478Z,19.53
2019-04-05T15:04:49.256Z,18.57
2019-04-05T15:07:15.021Z,18.27
2019-04-05T15:09:41.274Z,19.03
2019-04-05T15:12:07.514Z,17.67
2019-04-05T15:14:33.647Z,18.90
2019-04-05T15:16:59.914Z,17.80
2019-04-05T15:19:26.195Z,17.40
2019-04-05T15:22:04.882Z,18.00
2019-04-05T15:24:20.503Z,17.40
2019-04-05T15:26:46.814Z,18.50
2019-04-05T15:29:12.978Z,18.53
2019-04-05T15:31:39.113Z,17.50
2019-04-05T15:34:05.432Z,18.90
2019-04-05T15:36:32.259Z,18.03
2019-04-05T15:39:01.235Z,20.40
2019-04-05T15:41:26.777Z,18.43
2019-04-05T15:43:53.005Z,18.03
2019-04-05T15:46:19.321Z,18.63
2019-04-05T15:48:45.574Z,18.27
2019-04-05T15:51:12.034Z,18.00
2019-04-05T15:53:38.331Z,18.43
2019-04-05T15:56:04.932Z,18.13
2019-04-05T15:58:33.917Z,18.67
2019-04-05T16:00:59.572Z,19.83
2019-04-05T16:03:27.107Z,17.83
2019-04-05T16:05:53.422Z,18.83
2019-04-05T16:08:19.650Z,18.67
2019-04-05T16:10:46.050Z,18.87
2019-04-05T16:13:12.369Z,20.93
2019-04-05T16:15:38.571Z,20.30
2019-04-05T16:18:04.983Z,20.43
2019-04-05T16:20:31.276Z,20.53
2019-04-05T16:22:57.522Z,21.37
2019-04-05T16:25:23.823Z,23.90
2019-04-05T16:27:50.256Z,26.23
2019-04-05T16:30:16.971Z,28.20
2019-04-05T16:32:43.193Z,26.77
2019-04-05T16:35:09.381Z,23.50
2019-04-05T16:37:35.821Z,22.20
2019-04-05T16:40:06.830Z,24.17
2019-04-05T16:42:33.137Z,23.67
2019-04-05T16:44:59.232Z,24.63
2019-04-05T16:47:25.441Z,27.40
2019-04-05T16:49:51.779Z,38.50
2019-04-05T16:52:17.984Z,31.90
2019-04-05T16:54:44.196Z,25.40
2019-04-05T16:57:11.486Z,33.27
2019-04-05T16:59:37.721Z,28.20
2019-04-05T17:02:04.052Z,28.27
2019-04-05T17:04:30.270Z,28.40
2019-04-05T17:06:56.457Z,29.60
2019-04-05T17:09:22.988Z,28.73
2019-04-05T17:11:49.307Z,29.83
2019-04-05T17:14:15.683Z,29.93
2019-04-05T17:16:41.992Z,28.43
2019-04-05T17:19:08.198Z,28.83
2019-04-05T17:21:34.319Z,29.20
2019-04-05T17:24:00.676Z,30.40
2019-04-05T17:26:27.120Z,30.63
2019-04-05T17:28:54.677Z,29.03
2019-04-05T17:31:20.767Z,30.13
2019-04-05T17:33:47.007Z,30.70
2019-04-05T17:36:13.333Z,30.50
2019-04-05T17:38:39.636Z,30.67
2019-04-05T17:41:05.939Z,30.93
2019-04-05T17:43:32.264Z,32.03
2019-04-05T17:45:58.529Z,32.87
2019-04-05T17:48:24.762Z,32.03
2019-04-05T17:50:51.075Z,32.57
2019-04-05T17:53:17.379Z,32.87
2019-04-05T17:55:43.793Z,33.67
2019-04-05T17:58:10.380Z,35.33
2019-04-05T18:00:37.208Z,35.67
2019-04-05T18:03:04.243Z,35.27
2019-04-05T18:05:30.566Z,36.43
2019-04-05T18:07:56.910Z,36.57
2019-04-05T18:10:23.248Z,36.47
2019-04-05T18:12:49.439Z,36.97
2019-04-05T18:15:15.723Z,37.53
2019-04-05T18:17:41.926Z,37.43
2019-04-05T18:20:09.920Z,38.77
2019-04-05T18:22:36.412Z,38.60
2019-04-05T18:25:04.345Z,41.83
2019-04-05T18:27:30.566Z,41.43
2019-04-05T18:29:56.816Z,40.07
2019-04-05T18:32:23.083Z,41.77
2019-04-05T18:34:50.044Z,40.57
2019-04-05T18:37:16.384Z,41.50
2019-04-05T18:39:42.591Z,41.00
2019-04-05T18:42:08.708Z,42.23
2019-04-05T18:44:35.133Z,56.47
2019-04-05T18:47:01.325Z,48.17
2019-04-05T18:49:27.499Z,46.97
2019-04-05T18:51:53.828Z,43.87
2019-04-05T18:54:20.237Z,44.03
2019-04-05T18:56:46.502Z,45.30
2019-04-05T18:59:12.711Z,44.43
2019-04-05T19:01:39.174Z,46.07
2019-04-05T19:04:05.791Z,47.63
2019-04-05T19:06:32.166Z,47.70
2019-04-05T19:08:58.563Z,47.83
2019-04-05T19:11:24.812Z,49.57
2019-04-05T19:14:00.901Z,49.80
2019-04-05T19:16:19.211Z,48.57
2019-04-05T19:18:45.506Z,49.63
2019-04-05T19:21:11.968Z,49.60
2019-04-05T19:23:50.328Z,49.33
2019-04-05T19:26:06.535Z,51.13
2019-04-05T19:28:32.750Z,49.43
2019-04-05T19:48:34.869Z,53.53
2019-04-05T19:50:45.235Z,53.43
2019-04-05T19:53:11.432Z,55.07
2019-04-05T19:55:37.560Z,56.13
2019-04-05T19:58:03.883Z,56.40
2019-04-05T20:00:30.108Z,57.10
2019-04-05T20:02:56.477Z,58.57
2019-04-05T20:05:22.690Z,58.47
2019-04-05T20:07:49.022Z,58.77
2019-04-05T20:10:15.702Z,58.53
2019-04-05T20:12:42.023Z,59.33
2019-04-05T20:15:08.537Z,59.50
2019-04-05T20:17:34.672Z,57.13
2019-04-05T20:20:00.880Z,55.67
2019-04-05T20:22:29.043Z,56.27
2019-04-05T20:24:55.401Z,55.83
2019-04-05T20:27:21.504Z,55.03
2019-04-05T20:29:47.695Z,56.33
2019-04-05T20:32:13.841Z,56.67
2019-04-05T20:34:40.052Z,57.00
2019-04-05T20:37:06.339Z,58.50
2019-04-05T20:39:32.662Z,58.47
2019-04-05T20:41:58.844Z,57.07
2019-04-05T20:44:25.039Z,56.50
2019-04-05T20:46:51.360Z,57.27
2019-04-05T20:49:17.496Z,57.50
2019-04-05T20:51:43.600Z,58.33
2019-04-05T20:54:09.867Z,58.30
2019-04-05T20:56:36.065Z,60.67
2019-04-05T20:59:03.274Z,59.17
2019-04-05T21:01:29.492Z,58.30
2019-04-05T21:03:55.800Z,58.37
2019-04-05T21:06:22.051Z,57.70
2019-04-05T21:08:48.246Z,56.70
2019-04-05T21:11:14.369Z,60.80
2019-04-05T21:13:40.774Z,61.27
2019-04-05T21:16:07.006Z,64.47
2019-04-05T21:18:33.105Z,64.27
2019-04-05T21:20:59.347Z,67.07
2019-04-05T21:23:25.642Z,63.97
2019-04-05T21:25:51.842Z,64.47
2019-04-05T21:28:18.068Z,66.80
2019-04-05T21:30:44.299Z,65.30
2019-04-05T21:33:10.497Z,66.30
2019-04-05T21:35:36.614Z,64.20
2019-04-05T21:38:03.007Z,64.33
2019-04-05T21:40:29.300Z,67.27
2019-04-05T21:42:55.499Z,67.77
2019-04-05T21:45:21.629Z,67.10
2019-04-05T21:47:47.843Z,67.47
2019-04-05T21:50:14.157Z,66.33
2019-04-05T21:52:40.279Z,69.97
2019-04-05T21:55:06.882Z,65.83
2019-04-05T21:57:33.065Z,70.87
2019-04-05T21:59:59.303Z,71.20
2019-04-05T22:02:25.613Z,69.50
2019-04-05T22:04:51.782Z,69.47
2019-04-05T22:07:18.026Z,68.97
2019-04-05T22:09:44.151Z,66.67
2019-04-05T22:12:10.291Z,63.83
2019-04-05T22:14:36.536Z,68.60
2019-04-05T22:17:02.819Z,66.97
2019-04-05T22:19:28.902Z,69.50
2019-04-05T22:21:55.246Z,67.30
2019-04-05T22:24:21.320Z,68.63
2019-04-05T22:26:47.413Z,67.73
2019-04-05T22:29:13.481Z,70.13
2019-04-05T22:31:39.593Z,66.37
2019-04-05T22:34:05.680Z,68.13
2019-04-05T22:36:32.067Z,66.90
2019-04-05T22:38:58.228Z,69.13
2019-04-05T22:41:24.315Z,70.33
2019-04-05T22:43:50.420Z,68.60
2019-04-05T22:46:16.594Z,68.93
2019-04-05T22:48:42.697Z,64.67
2019-04-05T22:51:08.777Z,66.40
2019-04-05T22:53:34.981Z,65.10
2019-04-05T22:56:01.187Z,66.87
2019-04-05T22:58:27.375Z,67.43
2019-04-05T23:00:53.693Z,65.47
2019-04-05T23:03:20.004Z,64.93
2019-04-05T23:05:47.284Z,64.30
2019-04-05T23:08:13.414Z,64.73
2019-04-05T23:10:39.744Z,65.00
2019-04-05T23:13:05.959Z,63.70
2019-04-05T23:15:32.153Z,67.33
2019-04-05T23:17:58.368Z,66.77
2019-04-05T23:20:24.591Z,70.30
2019-04-05T23:22:50.671Z,66.83
2019-04-05T23:25:22.096Z,67.10
2019-04-05T23:27:46.503Z,66.43
2019-04-05T23:30:13.309Z,67.07
2019-04-05T23:32:39.534Z,67.17
2019-04-05T23:35:07.301Z,65.20
2019-04-05T23:37:33.566Z,67.17
2019-04-05T23:39:59.819Z,69.37
2019-04-05T23:42:26.908Z,67.67
2019-04-05T23:44:53.205Z,64.40
2019-04-05T23:47:19.417Z,66.27
2019-04-05T23:49:45.492Z,64.80
2019-04-05T23:52:12.117Z,65.57
2019-04-05T23:54:38.294Z,64.67
2019-04-05T23:57:04.391Z,63.10
2019-04-05T23:59:30.494Z,62.87
